sensor_id;sensor_type;location;lat;lon;timestamp;P1;durP1;ratioP1;P2;durP2;ratioP2
7336;SDS011;54510;42.016;23.098;2023-02-13T00:02:18;38.70;;;21.60;;
7336;SDS011;54510;42.016;23.098;2023-02-13T00:04:44;37.40;;;20.25;;
7336;SDS011;54510;42.016;23.098;2023-02-13T00:07:10;34.10;;;19.92;;
7336;SDS011;54510;42.016;23.098;2023-02-13T00:09:38;32.17;;;19.23;;
7336;SDS011;54510;42.016;23.098;2023-02-13T00:12:04;34.47;;;19.17;;
7336;SDS011;54510;42.016;23.098;2023-02-13T00:14:34;34.28;;;19.88;;
7336;SDS011;54510;42.016;23.098;2023-02-13T00:17:01;40.20;;;24.65;;
7336;SDS011;54510;42.016;23.098;2023-02-13T00:19:27;37.90;;;22.15;;
7336;SDS011;54510;42.016;23.098;2023-02-13T00:21:52;44.22;;;23.33;;
7336;SDS011;54510;42.016;23.098;2023-02-13T00:24:18;41.92;;;23.98;;
7336;SDS011;54510;42.016;23.098;2023-02-13T00:26:43;46.28;;;25.23;;
7336;SDS011;54510;42.016;23.098;2023-02-13T00:29:09;37.35;;;21.50;;
7336;SDS011;54510;42.016;23.098;2023-02-13T00:31:34;42.65;;;22.08;;
7336;SDS011;54510;42.016;23.098;2023-02-13T00:33:59;43.47;;;21.67;;
7336;SDS011;54510;42.016;23.098;2023-02-13T00:36:25;46.92;;;22.15;;
7336;SDS011;54510;42.016;23.098;2023-02-13T00:38:51;39.35;;;21.60;;
7336;SDS011;54510;42.016;23.098;2023-02-13T00:41:18;38.05;;;21.08;;
7336;SDS011;54510;42.016;23.098;2023-02-13T00:43:44;41.90;;;22.30;;
7336;SDS011;54510;42.016;23.098;2023-02-13T00:46:11;39.15;;;21.10;;
7336;SDS011;54510;42.016;23.098;2023-02-13T00:48:36;38.03;;;21.15;;
7336;SDS011;54510;42.016;23.098;2023-02-13T00:51:02;39.88;;;22.40;;
7336;SDS011;54510;42.016;23.098;2023-02-13T00:53:28;36.63;;;21.35;;
7336;SDS011;54510;42.016;23.098;2023-02-13T00:55:54;39.20;;;22.48;;
7336;SDS011;54510;42.016;23.098;2023-02-13T00:58:20;40.88;;;23.92;;
7336;SDS011;54510;42.016;23.098;2023-02-13T01:00:47;40.60;;;23.35;;
7336;SDS011;54510;42.016;23.098;2023-02-13T01:03:13;50.97;;;24.45;;
7336;SDS011;54510;42.016;23.098;2023-02-13T01:05:39;45.92;;;25.00;;
7336;SDS011;54510;42.016;23.098;2023-02-13T01:08:05;42.53;;;24.50;;
7336;SDS011;54510;42.016;23.098;2023-02-13T01:10:30;44.63;;;23.05;;
7336;SDS011;54510;42.016;23.098;2023-02-13T01:12:56;43.25;;;23.38;;
7336;SDS011;54510;42.016;23.098;2023-02-13T01:15:21;47.50;;;22.35;;
7336;SDS011;54510;42.016;23.098;2023-02-13T01:17:47;50.10;;;24.25;;
7336;SDS011;54510;42.016;23.098;2023-02-13T01:20:12;40.30;;;22.65;;
7336;SDS011;54510;42.016;23.098;2023-02-13T01:22:38;47.30;;;23.58;;
7336;SDS011;54510;42.016;23.098;2023-02-13T01:25:04;43.28;;;23.63;;
7336;SDS011;54510;42.016;23.098;2023-02-13T01:27:31;41.80;;;21.77;;
7336;SDS011;54510;42.016;23.098;2023-02-13T01:29:57;43.03;;;22.42;;
7336;SDS011;54510;42.016;23.098;2023-02-13T01:32:23;40.67;;;23.92;;
7336;SDS011;54510;42.016;23.098;2023-02-13T01:34:49;49.20;;;26.10;;
7336;SDS011;54510;42.016;23.098;2023-02-13T01:37:14;44.47;;;24.40;;
7336;SDS011;54510;42.016;23.098;2023-02-13T01:39:40;42.50;;;24.90;;
7336;SDS011;54510;42.016;23.098;2023-02-13T01:42:14;38.78;;;23.45;;
7336;SDS011;54510;42.016;23.098;2023-02-13T01:47:13;35.65;;;20.67;;
7336;SDS011;54510;42.016;23.098;2023-02-13T01:49:43;43.10;;;22.35;;
7336;SDS011;54510;42.016;23.098;2023-02-13T01:52:10;40.20;;;20.02;;
7336;SDS011;54510;42.016;23.098;2023-02-13T01:54:37;37.17;;;20.95;;
7336;SDS011;54510;42.016;23.098;2023-02-13T01:57:06;41.97;;;20.75;;
7336;SDS011;54510;42.016;23.098;2023-02-13T02:02:17;36.53;;;20.35;;
7336;SDS011;54510;42.016;23.098;2023-02-13T02:04:43;38.15;;;20.92;;
7336;SDS011;54510;42.016;23.098;2023-02-13T02:07:22;35.25;;;20.73;;
7336;SDS011;54510;42.016;23.098;2023-02-13T02:09:51;38.88;;;22.05;;
7336;SDS011;54510;42.016;23.098;2023-02-13T02:12:22;39.30;;;22.02;;
7336;SDS011;54510;42.016;23.098;2023-02-13T02:15:02;37.80;;;21.83;;
7336;SDS011;54510;42.016;23.098;2023-02-13T02:17:29;41.40;;;23.52;;
7336;SDS011;54510;42.016;23.098;2023-02-13T02:22:49;41.08;;;22.33;;
7336;SDS011;54510;42.016;23.098;2023-02-13T02:33:53;38.28;;;20.17;;
7336;SDS011;54510;42.016;23.098;2023-02-13T02:45:22;36.55;;;21.90;;
7336;SDS011;54510;42.016;23.098;2023-02-13T02:48:04;39.92;;;24.45;;
7336;SDS011;54510;42.016;23.098;2023-02-13T02:50:58;35.78;;;20.23;;
7336;SDS011;54510;42.016;23.098;2023-02-13T02:56:51;35.67;;;19.63;;
7336;SDS011;54510;42.016;23.098;2023-02-13T02:59:21;38.85;;;21.50;;
7336;SDS011;54510;42.016;23.098;2023-02-13T03:02:08;46.65;;;22.77;;
7336;SDS011;54510;42.016;23.098;2023-02-13T03:04:55;38.50;;;20.02;;
7336;SDS011;54510;42.016;23.098;2023-02-13T03:07:43;40.03;;;20.95;;
7336;SDS011;54510;42.016;23.098;2023-02-13T03:10:10;35.78;;;19.85;;
7336;SDS011;54510;42.016;23.098;2023-02-13T03:13:15;34.83;;;20.13;;
7336;SDS011;54510;42.016;23.098;2023-02-13T03:15:53;32.90;;;19.10;;
7336;SDS011;54510;42.016;23.098;2023-02-13T03:18:43;41.83;;;22.30;;
7336;SDS011;54510;42.016;23.098;2023-02-13T03:30:52;36.78;;;21.13;;
7336;SDS011;54510;42.016;23.098;2023-02-13T03:33:52;38.33;;;20.37;;
7336;SDS011;54510;42.016;23.098;2023-02-13T03:36:38;38.67;;;21.13;;
7336;SDS011;54510;42.016;23.098;2023-02-13T03:44:43;43.53;;;21.35;;
7336;SDS011;54510;42.016;23.098;2023-02-13T03:47:39;38.53;;;19.80;;
7336;SDS011;54510;42.016;23.098;2023-02-13T03:50:08;38.05;;;19.58;;
7336;SDS011;54510;42.016;23.098;2023-02-13T03:55:44;46.20;;;24.20;;
7336;SDS011;54510;42.016;23.098;2023-02-13T03:58:23;46.80;;;24.95;;
7336;SDS011;54510;42.016;23.098;2023-02-13T04:01:13;44.20;;;21.05;;
7336;SDS011;54510;42.016;23.098;2023-02-13T04:06:37;32.45;;;18.35;;
7336;SDS011;54510;42.016;23.098;2023-02-13T04:09:04;38.78;;;19.00;;
7336;SDS011;54510;42.016;23.098;2023-02-13T04:14:27;30.88;;;18.92;;
7336;SDS011;54510;42.016;23.098;2023-02-13T04:17:01;30.33;;;18.33;;
7336;SDS011;54510;42.016;23.098;2023-02-13T04:19:30;34.00;;;19.50;;
7336;SDS011;54510;42.016;23.098;2023-02-13T04:21:57;33.53;;;19.67;;
7336;SDS011;54510;42.016;23.098;2023-02-13T04:24:25;32.88;;;18.23;;
7336;SDS011;54510;42.016;23.098;2023-02-13T04:26:51;34.20;;;18.38;;
7336;SDS011;54510;42.016;23.098;2023-02-13T04:29:17;37.75;;;18.25;;
7336;SDS011;54510;42.016;23.098;2023-02-13T04:31:44;32.30;;;17.27;;
7336;SDS011;54510;42.016;23.098;2023-02-13T04:34:09;30.88;;;17.50;;
7336;SDS011;54510;42.016;23.098;2023-02-13T04:36:35;32.80;;;20.15;;
7336;SDS011;54510;42.016;23.098;2023-02-13T04:39:00;36.72;;;19.25;;
7336;SDS011;54510;42.016;23.098;2023-02-13T04:41:26;34.20;;;19.13;;
7336;SDS011;54510;42.016;23.098;2023-02-13T04:43:51;41.53;;;21.27;;
7336;SDS011;54510;42.016;23.098;2023-02-13T04:46:17;37.10;;;21.25;;
7336;SDS011;54510;42.016;23.098;2023-02-13T04:48:42;36.97;;;21.33;;
7336;SDS011;54510;42.016;23.098;2023-02-13T04:51:08;39.78;;;21.60;;
7336;SDS011;54510;42.016;23.098;2023-02-13T04:53:33;38.25;;;22.83;;
7336;SDS011;54510;42.016;23.098;2023-02-13T04:55:59;39.35;;;21.48;;
7336;SDS011;54510;42.016;23.098;2023-02-13T04:58:24;34.30;;;20.80;;
7336;SDS011;54510;42.016;23.098;2023-02-13T05:00:50;38.92;;;21.48;;
7336;SDS011;54510;42.016;23.098;2023-02-13T05:03:15;36.42;;;21.60;;
7336;SDS011;54510;42.016;23.098;2023-02-13T05:05:41;45.53;;;27.45;;
7336;SDS011;54510;42.016;23.098;2023-02-13T05:08:07;48.13;;;28.00;;
7336;SDS011;54510;42.016;23.098;2023-02-13T05:10:33;43.03;;;23.50;;
7336;SDS011;54510;42.016;23.098;2023-02-13T05:12:59;39.95;;;21.42;;
7336;SDS011;54510;42.016;23.098;2023-02-13T05:15:24;42.63;;;23.35;;
7336;SDS011;54510;42.016;23.098;2023-02-13T05:17:50;37.40;;;20.55;;
7336;SDS011;54510;42.016;23.098;2023-02-13T05:20:15;37.22;;;20.73;;
7336;SDS011;54510;42.016;23.098;2023-02-13T05:22:48;40.58;;;22.67;;
7336;SDS011;54510;42.016;23.098;2023-02-13T05:25:34;34.22;;;20.38;;
7336;SDS011;54510;42.016;23.098;2023-02-13T05:28:00;42.40;;;23.60;;
7336;SDS011;54510;42.016;23.098;2023-02-13T05:30:26;56.42;;;26.40;;
7336;SDS011;54510;42.016;23.098;2023-02-13T05:32:51;52.40;;;26.67;;
7336;SDS011;54510;42.016;23.098;2023-02-13T05:35:18;46.70;;;25.55;;
7336;SDS011;54510;42.016;23.098;2023-02-13T05:37:47;48.67;;;23.88;;
7336;SDS011;54510;42.016;23.098;2023-02-13T05:40:13;41.75;;;23.35;;
7336;SDS011;54510;42.016;23.098;2023-02-13T05:42:39;40.25;;;22.10;;
7336;SDS011;54510;42.016;23.098;2023-02-13T05:45:05;41.70;;;22.30;;
7336;SDS011;54510;42.016;23.098;2023-02-13T05:47:31;43.45;;;22.48;;
7336;SDS011;54510;42.016;23.098;2023-02-13T05:49:57;64.53;;;31.27;;
7336;SDS011;54510;42.016;23.098;2023-02-13T05:52:22;50.83;;;28.40;;
7336;SDS011;54510;42.016;23.098;2023-02-13T05:54:48;48.38;;;24.98;;
7336;SDS011;54510;42.016;23.098;2023-02-13T05:57:13;39.38;;;22.42;;
7336;SDS011;54510;42.016;23.098;2023-02-13T05:59:39;47.72;;;24.00;;
7336;SDS011;54510;42.016;23.098;2023-02-13T06:02:04;47.40;;;27.45;;
7336;SDS011;54510;42.016;23.098;2023-02-13T06:04:29;56.22;;;30.08;;
7336;SDS011;54510;42.016;23.098;2023-02-13T06:06:55;50.70;;;28.83;;
7336;SDS011;54510;42.016;23.098;2023-02-13T06:09:20;65.80;;;38.45;;
7336;SDS011;54510;42.016;23.098;2023-02-13T06:11:46;77.95;;;46.35;;
7336;SDS011;54510;42.016;23.098;2023-02-13T06:14:11;85.43;;;50.75;;
7336;SDS011;54510;42.016;23.098;2023-02-13T06:16:38;77.57;;;45.97;;
7336;SDS011;54510;42.016;23.098;2023-02-13T06:19:04;55.00;;;31.85;;
7336;SDS011;54510;42.016;23.098;2023-02-13T06:21:29;58.63;;;32.78;;
7336;SDS011;54510;42.016;23.098;2023-02-13T06:23:57;54.65;;;29.23;;
7336;SDS011;54510;42.016;23.098;2023-02-13T06:26:23;50.95;;;29.92;;
7336;SDS011;54510;42.016;23.098;2023-02-13T06:28:48;68.35;;;38.40;;
7336;SDS011;54510;42.016;23.098;2023-02-13T06:31:14;95.10;;;50.25;;
7336;SDS011;54510;42.016;23.098;2023-02-13T06:33:39;92.07;;;50.67;;
7336;SDS011;54510;42.016;23.098;2023-02-13T06:36:05;82.95;;;45.92;;
7336;SDS011;54510;42.016;23.098;2023-02-13T06:38:30;71.78;;;42.83;;
7336;SDS011;54510;42.016;23.098;2023-02-13T06:40:58;82.15;;;41.55;;
7336;SDS011;54510;42.016;23.098;2023-02-13T06:43:26;82.25;;;43.78;;
7336;SDS011;54510;42.016;23.098;2023-02-13T06:45:51;79.68;;;42.20;;
7336;SDS011;54510;42.016;23.098;2023-02-13T06:48:18;74.50;;;41.38;;
7336;SDS011;54510;42.016;23.098;2023-02-13T06:50:43;80.22;;;42.47;;
7336;SDS011;54510;42.016;23.098;2023-02-13T06:53:09;81.18;;;45.65;;
7336;SDS011;54510;42.016;23.098;2023-02-13T06:55:34;100.07;;;49.88;;
7336;SDS011;54510;42.016;23.098;2023-02-13T06:58:03;97.85;;;59.55;;
7336;SDS011;54510;42.016;23.098;2023-02-13T07:00:28;101.38;;;59.63;;
7336;SDS011;54510;42.016;23.098;2023-02-13T07:02:54;165.02;;;92.93;;
7336;SDS011;54510;42.016;23.098;2023-02-13T07:05:25;119.43;;;68.32;;
7336;SDS011;54510;42.016;23.098;2023-02-13T07:07:50;80.70;;;51.95;;
7336;SDS011;54510;42.016;23.098;2023-02-13T07:10:16;80.63;;;50.03;;
7336;SDS011;54510;42.016;23.098;2023-02-13T07:12:41;79.78;;;45.00;;
7336;SDS011;54510;42.016;23.098;2023-02-13T07:15:07;78.88;;;45.45;;
7336;SDS011;54510;42.016;23.098;2023-02-13T07:17:33;72.10;;;40.17;;
7336;SDS011;54510;42.016;23.098;2023-02-13T07:19:58;73.78;;;39.35;;
7336;SDS011;54510;42.016;23.098;2023-02-13T07:22:24;72.72;;;37.20;;
7336;SDS011;54510;42.016;23.098;2023-02-13T07:24:49;64.95;;;38.25;;
7336;SDS011;54510;42.016;23.098;2023-02-13T07:27:14;81.95;;;41.67;;
7336;SDS011;54510;42.016;23.098;2023-02-13T07:29:40;67.90;;;38.42;;
7336;SDS011;54510;42.016;23.098;2023-02-13T07:32:05;72.20;;;38.15;;
7336;SDS011;54510;42.016;23.098;2023-02-13T07:34:31;77.72;;;42.25;;
7336;SDS011;54510;42.016;23.098;2023-02-13T07:36:57;74.90;;;43.30;;
7336;SDS011;54510;42.016;23.098;2023-02-13T07:39:22;66.15;;;35.38;;
7336;SDS011;54510;42.016;23.098;2023-02-13T07:41:48;65.63;;;38.88;;
7336;SDS011;54510;42.016;23.098;2023-02-13T07:44:13;72.28;;;38.45;;
7336;SDS011;54510;42.016;23.098;2023-02-13T07:46:39;63.75;;;34.90;;
7336;SDS011;54510;42.016;23.098;2023-02-13T07:49:04;73.05;;;39.58;;
7336;SDS011;54510;42.016;23.098;2023-02-13T07:51:29;63.88;;;37.10;;
7336;SDS011;54510;42.016;23.098;2023-02-13T07:53:55;70.25;;;38.70;;
7336;SDS011;54510;42.016;23.098;2023-02-13T07:56:20;80.53;;;40.75;;
7336;SDS011;54510;42.016;23.098;2023-02-13T07:58:46;84.80;;;43.08;;
7336;SDS011;54510;42.016;23.098;2023-02-13T08:01:12;80.85;;;45.72;;
7336;SDS011;54510;42.016;23.098;2023-02-13T08:03:39;81.38;;;44.75;;
7336;SDS011;54510;42.016;23.098;2023-02-13T08:06:05;82.18;;;42.08;;
7336;SDS011;54510;42.016;23.098;2023-02-13T08:08:31;79.05;;;42.85;;
7336;SDS011;54510;42.016;23.098;2023-02-13T08:11:01;65.55;;;37.67;;
7336;SDS011;54510;42.016;23.098;2023-02-13T08:13:48;69.43;;;37.92;;
7336;SDS011;54510;42.016;23.098;2023-02-13T08:16:13;66.63;;;35.55;;
7336;SDS011;54510;42.016;23.098;2023-02-13T08:18:39;70.20;;;34.30;;
7336;SDS011;54510;42.016;23.098;2023-02-13T08:21:04;62.13;;;33.95;;
7336;SDS011;54510;42.016;23.098;2023-02-13T08:23:30;73.03;;;37.10;;
7336;SDS011;54510;42.016;23.098;2023-02-13T08:25:58;57.55;;;33.83;;
7336;SDS011;54510;42.016;23.098;2023-02-13T08:28:24;61.00;;;34.22;;
7336;SDS011;54510;42.016;23.098;2023-02-13T08:30:50;57.65;;;30.83;;
7336;SDS011;54510;42.016;23.098;2023-02-13T08:33:15;90.32;;;48.35;;
7336;SDS011;54510;42.016;23.098;2023-02-13T08:35:41;69.00;;;34.80;;
7336;SDS011;54510;42.016;23.098;2023-02-13T08:38:06;67.13;;;35.45;;
7336;SDS011;54510;42.016;23.098;2023-02-13T08:40:32;53.30;;;30.88;;
7336;SDS011;54510;42.016;23.098;2023-02-13T08:43:00;50.45;;;31.25;;
7336;SDS011;54510;42.016;23.098;2023-02-13T08:45:27;60.97;;;33.55;;
7336;SDS011;54510;42.016;23.098;2023-02-13T08:47:54;55.88;;;32.25;;
7336;SDS011;54510;42.016;23.098;2023-02-13T08:50:21;56.63;;;31.02;;
7336;SDS011;54510;42.016;23.098;2023-02-13T08:52:46;57.55;;;33.13;;
7336;SDS011;54510;42.016;23.098;2023-02-13T08:55:12;53.22;;;31.45;;
7336;SDS011;54510;42.016;23.098;2023-02-13T08:57:37;58.30;;;29.55;;
7336;SDS011;54510;42.016;23.098;2023-02-13T09:00:03;46.22;;;26.23;;
7336;SDS011;54510;42.016;23.098;2023-02-13T09:02:28;56.47;;;31.30;;
7336;SDS011;54510;42.016;23.098;2023-02-13T09:04:54;56.50;;;30.30;;
7336;SDS011;54510;42.016;23.098;2023-02-13T09:07:19;47.63;;;27.27;;
7336;SDS011;54510;42.016;23.098;2023-02-13T09:09:45;55.80;;;27.33;;
7336;SDS011;54510;42.016;23.098;2023-02-13T09:12:10;55.83;;;30.08;;
7336;SDS011;54510;42.016;23.098;2023-02-13T09:14:37;44.58;;;26.48;;
7336;SDS011;54510;42.016;23.098;2023-02-13T09:17:03;55.92;;;31.23;;
7336;SDS011;54510;42.016;23.098;2023-02-13T09:19:29;46.60;;;23.83;;
7336;SDS011;54510;42.016;23.098;2023-02-13T09:21:55;50.72;;;27.65;;
7336;SDS011;54510;42.016;23.098;2023-02-13T09:24:20;46.83;;;23.45;;
7336;SDS011;54510;42.016;23.098;2023-02-13T09:26:45;46.42;;;24.58;;
7336;SDS011;54510;42.016;23.098;2023-02-13T09:29:11;46.17;;;26.75;;
7336;SDS011;54510;42.016;23.098;2023-02-13T09:31:36;44.17;;;24.67;;
7336;SDS011;54510;42.016;23.098;2023-02-13T09:34:02;45.47;;;26.58;;
7336;SDS011;54510;42.016;23.098;2023-02-13T09:36:27;52.08;;;27.27;;
7336;SDS011;54510;42.016;23.098;2023-02-13T09:38:53;55.55;;;29.92;;
7336;SDS011;54510;42.016;23.098;2023-02-13T09:43:58;49.28;;;25.70;;
7336;SDS011;54510;42.016;23.098;2023-02-13T09:46:27;54.72;;;26.10;;
7336;SDS011;54510;42.016;23.098;2023-02-13T09:48:58;48.08;;;24.02;;
7336;SDS011;54510;42.016;23.098;2023-02-13T09:51:29;43.35;;;23.90;;
7336;SDS011;54510;42.016;23.098;2023-02-13T09:54:01;46.38;;;25.20;;
7336;SDS011;54510;42.016;23.098;2023-02-13T10:02:00;41.85;;;22.88;;
7336;SDS011;54510;42.016;23.098;2023-02-13T10:04:47;45.20;;;24.05;;
7336;SDS011;54510;42.016;23.098;2023-02-13T10:18:22;51.72;;;28.80;;
7336;SDS011;54510;42.016;23.098;2023-02-13T10:20:56;39.65;;;23.55;;
7336;SDS011;54510;42.016;23.098;2023-02-13T10:23:32;50.03;;;27.58;;
7336;SDS011;54510;42.016;23.098;2023-02-13T10:26:06;50.60;;;29.17;;
7336;SDS011;54510;42.016;23.098;2023-02-13T10:28:47;45.60;;;25.20;;
7336;SDS011;54510;42.016;23.098;2023-02-13T10:31:44;60.35;;;31.35;;
7336;SDS011;54510;42.016;23.098;2023-02-13T10:34:15;71.47;;;39.17;;
7336;SDS011;54510;42.016;23.098;2023-02-13T10:36:45;48.83;;;25.38;;
7336;SDS011;54510;42.016;23.098;2023-02-13T10:41:54;111.35;;;60.50;;
7336;SDS011;54510;42.016;23.098;2023-02-13T11:02:59;38.22;;;21.58;;
7336;SDS011;54510;42.016;23.098;2023-02-13T11:05:39;45.92;;;22.73;;
7336;SDS011;54510;42.016;23.098;2023-02-13T11:08:22;50.13;;;26.13;;
7336;SDS011;54510;42.016;23.098;2023-02-13T11:10:54;37.35;;;21.45;;
7336;SDS011;54510;42.016;23.098;2023-02-13T11:13:23;34.15;;;20.50;;
7336;SDS011;54510;42.016;23.098;2023-02-13T11:15:58;36.22;;;21.02;;
7336;SDS011;54510;42.016;23.098;2023-02-13T11:18:27;36.45;;;19.23;;
7336;SDS011;54510;42.016;23.098;2023-02-13T11:20:58;30.90;;;18.95;;
7336;SDS011;54510;42.016;23.098;2023-02-13T11:26:51;51.00;;;24.25;;
7336;SDS011;54510;42.016;23.098;2023-02-13T11:28:59;36.15;;;23.60;;
7336;SDS011;54510;42.016;23.098;2023-02-13T11:31:35;37.50;;;21.05;;
7336;SDS011;54510;42.016;23.098;2023-02-13T11:39:19;39.72;;;19.80;;
7336;SDS011;54510;42.016;23.098;2023-02-13T11:41:50;31.73;;;18.67;;
7336;SDS011;54510;42.016;23.098;2023-02-13T11:44:21;35.70;;;19.30;;
7336;SDS011;54510;42.016;23.098;2023-02-13T11:46:51;32.90;;;19.55;;
7336;SDS011;54510;42.016;23.098;2023-02-13T11:49:20;36.95;;;18.90;;
7336;SDS011;54510;42.016;23.098;2023-02-13T11:51:46;38.05;;;20.08;;
7336;SDS011;54510;42.016;23.098;2023-02-13T11:54:33;36.70;;;19.17;;
7336;SDS011;54510;42.016;23.098;2023-02-13T11:57:22;37.75;;;17.85;;
7336;SDS011;54510;42.016;23.098;2023-02-13T11:59:49;27.63;;;16.20;;
7336;SDS011;54510;42.016;23.098;2023-02-13T12:04:42;28.83;;;15.02;;
7336;SDS011;54510;42.016;23.098;2023-02-13T12:07:18;29.58;;;17.77;;
7336;SDS011;54510;42.016;23.098;2023-02-13T12:09:47;34.08;;;18.00;;
7336;SDS011;54510;42.016;23.098;2023-02-13T12:12:35;34.17;;;14.15;;
7336;SDS011;54510;42.016;23.098;2023-02-13T12:15:15;27.15;;;15.27;;
7336;SDS011;54510;42.016;23.098;2023-02-13T12:17:43;21.83;;;12.10;;
7336;SDS011;54510;42.016;23.098;2023-02-13T12:20:14;24.75;;;13.63;;
7336;SDS011;54510;42.016;23.098;2023-02-13T12:22:44;21.98;;;11.93;;
7336;SDS011;54510;42.016;23.098;2023-02-13T12:25:22;21.60;;;12.13;;
7336;SDS011;54510;42.016;23.098;2023-02-13T12:33:34;22.63;;;12.50;;
7336;SDS011;54510;42.016;23.098;2023-02-13T13:00:16;18.05;;;11.93;;
7336;SDS011;54510;42.016;23.098;2023-02-13T13:08:11;35.22;;;17.92;;
7336;SDS011;54510;42.016;23.098;2023-02-13T13:18:25;29.83;;;13.43;;
7336;SDS011;54510;42.016;23.098;2023-02-13T13:20:59;20.45;;;12.30;;
7336;SDS011;54510;42.016;23.098;2023-02-13T13:23:33;17.38;;;11.23;;
7336;SDS011;54510;42.016;23.098;2023-02-13T13:28:51;18.85;;;11.60;;
7336;SDS011;54510;42.016;23.098;2023-02-13T13:31:19;22.50;;;13.60;;
7336;SDS011;54510;42.016;23.098;2023-02-13T13:33:48;17.52;;;11.43;;
7336;SDS011;54510;42.016;23.098;2023-02-13T13:47:39;22.67;;;14.00;;
7336;SDS011;54510;42.016;23.098;2023-02-13T13:50:23;18.73;;;11.68;;
7336;SDS011;54510;42.016;23.098;2023-02-13T13:58:30;19.23;;;10.02;;
7336;SDS011;54510;42.016;23.098;2023-02-13T14:03:40;24.65;;;13.40;;
7336;SDS011;54510;42.016;23.098;2023-02-13T14:06:11;16.02;;;10.15;;
7336;SDS011;54510;42.016;23.098;2023-02-13T14:11:04;18.90;;;11.40;;
7336;SDS011;54510;42.016;23.098;2023-02-13T14:13:34;18.08;;;11.68;;
7336;SDS011;54510;42.016;23.098;2023-02-13T14:18:35;19.75;;;12.32;;
7336;SDS011;54510;42.016;23.098;2023-02-13T14:21:03;34.47;;;20.77;;
7336;SDS011;54510;42.016;23.098;2023-02-13T14:26:18;21.65;;;11.75;;
7336;SDS011;54510;42.016;23.098;2023-02-13T14:34:07;16.20;;;10.65;;
7336;SDS011;54510;42.016;23.098;2023-02-13T14:36:47;21.40;;;12.15;;
7336;SDS011;54510;42.016;23.098;2023-02-13T14:39:31;22.98;;;12.70;;
7336;SDS011;54510;42.016;23.098;2023-02-13T14:42:03;29.13;;;14.70;;
7336;SDS011;54510;42.016;23.098;2023-02-13T14:44:46;20.98;;;12.25;;
7336;SDS011;54510;42.016;23.098;2023-02-13T14:47:21;17.55;;;10.35;;
7336;SDS011;54510;42.016;23.098;2023-02-13T14:49:49;20.70;;;11.38;;
7336;SDS011;54510;42.016;23.098;2023-02-13T14:52:17;25.33;;;14.18;;
7336;SDS011;54510;42.016;23.098;2023-02-13T14:54:51;23.95;;;14.30;;
7336;SDS011;54510;42.016;23.098;2023-02-13T14:57:23;35.97;;;23.02;;
7336;SDS011;54510;42.016;23.098;2023-02-13T14:59:54;18.85;;;10.85;;
7336;SDS011;54510;42.016;23.098;2023-02-13T15:02:26;17.75;;;10.40;;
7336;SDS011;54510;42.016;23.098;2023-02-13T15:04:59;22.10;;;11.93;;
7336;SDS011;54510;42.016;23.098;2023-02-13T15:07:40;30.20;;;16.05;;
7336;SDS011;54510;42.016;23.098;2023-02-13T15:12:56;19.70;;;11.05;;
7336;SDS011;54510;42.016;23.098;2023-02-13T15:15:24;21.05;;;11.60;;
7336;SDS011;54510;42.016;23.098;2023-02-13T15:18:01;16.55;;;10.23;;
7336;SDS011;54510;42.016;23.098;2023-02-13T15:20:34;20.70;;;10.77;;
7336;SDS011;54510;42.016;23.098;2023-02-13T15:23:03;16.92;;;10.55;;
7336;SDS011;54510;42.016;23.098;2023-02-13T15:25:35;21.45;;;11.43;;
7336;SDS011;54510;42.016;23.098;2023-02-13T15:28:03;20.30;;;13.05;;
7336;SDS011;54510;42.016;23.098;2023-02-13T15:30:32;24.92;;;13.60;;
7336;SDS011;54510;42.016;23.098;2023-02-13T15:35:44;49.50;;;25.10;;
7336;SDS011;54510;42.016;23.098;2023-02-13T15:38:19;30.42;;;15.45;;
7336;SDS011;54510;42.016;23.098;2023-02-13T15:40:50;38.97;;;16.30;;
7336;SDS011;54510;42.016;23.098;2023-02-13T15:43:20;34.45;;;17.88;;
7336;SDS011;54510;42.016;23.098;2023-02-13T15:45:50;30.10;;;16.02;;
7336;SDS011;54510;42.016;23.098;2023-02-13T15:48:15;48.65;;;20.48;;
7336;SDS011;54510;42.016;23.098;2023-02-13T15:50:41;48.40;;;21.13;;
7336;SDS011;54510;42.016;23.098;2023-02-13T15:53:10;29.77;;;17.73;;
7336;SDS011;54510;42.016;23.098;2023-02-13T15:55:41;33.53;;;18.67;;
7336;SDS011;54510;42.016;23.098;2023-02-13T15:58:20;22.10;;;13.88;;
7336;SDS011;54510;42.016;23.098;2023-02-13T16:00:49;24.88;;;13.90;;
7336;SDS011;54510;42.016;23.098;2023-02-13T16:03:15;27.90;;;16.60;;
7336;SDS011;54510;42.016;23.098;2023-02-13T16:05:43;28.55;;;16.92;;
7336;SDS011;54510;42.016;23.098;2023-02-13T16:13:51;35.65;;;18.13;;
7336;SDS011;54510;42.016;23.098;2023-02-13T16:16:21;31.45;;;17.67;;
7336;SDS011;54510;42.016;23.098;2023-02-13T16:18:48;31.38;;;20.15;;
7336;SDS011;54510;42.016;23.098;2023-02-13T16:21:13;36.05;;;18.10;;
7336;SDS011;54510;42.016;23.098;2023-02-13T16:23:42;34.97;;;17.80;;
7336;SDS011;54510;42.016;23.098;2023-02-13T16:26:09;37.90;;;19.80;;
7336;SDS011;54510;42.016;23.098;2023-02-13T16:28:38;30.63;;;17.85;;
7336;SDS011;54510;42.016;23.098;2023-02-13T16:31:04;31.55;;;17.73;;
7336;SDS011;54510;42.016;23.098;2023-02-13T16:33:30;25.92;;;15.23;;
7336;SDS011;54510;42.016;23.098;2023-02-13T16:38:34;33.10;;;21.17;;
7336;SDS011;54510;42.016;23.098;2023-02-13T16:49:05;77.30;;;39.70;;
7336;SDS011;54510;42.016;23.098;2023-02-13T17:04:42;71.78;;;38.80;;
7336;SDS011;54510;42.016;23.098;2023-02-13T17:07:19;70.68;;;42.53;;
7336;SDS011;54510;42.016;23.098;2023-02-13T17:10:33;65.47;;;33.45;;
7336;SDS011;54510;42.016;23.098;2023-02-13T17:12:52;39.95;;;24.27;;
7336;SDS011;54510;42.016;23.098;2023-02-13T17:15:21;33.95;;;19.33;;
7336;SDS011;54510;42.016;23.098;2023-02-13T17:17:48;29.88;;;17.73;;
7336;SDS011;54510;42.016;23.098;2023-02-13T17:20:15;32.25;;;18.27;;
7336;SDS011;54510;42.016;23.098;2023-02-13T17:22:49;24.20;;;12.95;;
7336;SDS011;54510;42.016;23.098;2023-02-13T17:27:45;27.50;;;15.00;;
7336;SDS011;54510;42.016;23.098;2023-02-13T17:30:15;33.22;;;17.70;;
7336;SDS011;54510;42.016;23.098;2023-02-13T17:32:43;25.20;;;14.48;;
7336;SDS011;54510;42.016;23.098;2023-02-13T17:35:11;30.33;;;17.08;;
7336;SDS011;54510;42.016;23.098;2023-02-13T17:37:38;24.25;;;14.07;;
7336;SDS011;54510;42.016;23.098;2023-02-13T17:40:05;23.15;;;11.40;;
7336;SDS011;54510;42.016;23.098;2023-02-13T17:42:31;23.30;;;11.45;;
7336;SDS011;54510;42.016;23.098;2023-02-13T17:44:57;24.60;;;12.32;;
7336;SDS011;54510;42.016;23.098;2023-02-13T17:47:23;30.40;;;15.43;;
7336;SDS011;54510;42.016;23.098;2023-02-13T17:49:50;28.13;;;16.88;;
7336;SDS011;54510;42.016;23.098;2023-02-13T17:52:17;27.05;;;18.55;;
7336;SDS011;54510;42.016;23.098;2023-02-13T17:54:44;25.13;;;14.23;;
7336;SDS011;54510;42.016;23.098;2023-02-13T17:57:11;24.05;;;14.00;;
7336;SDS011;54510;42.016;23.098;2023-02-13T17:59:38;32.30;;;14.95;;
7336;SDS011;54510;42.016;23.098;2023-02-13T18:02:17;25.35;;;14.38;;
7336;SDS011;54510;42.016;23.098;2023-02-13T18:04:51;23.95;;;14.07;;
7336;SDS011;54510;42.016;23.098;2023-02-13T18:07:17;29.48;;;15.23;;
7336;SDS011;54510;42.016;23.098;2023-02-13T18:09:44;25.88;;;14.70;;
7336;SDS011;54510;42.016;23.098;2023-02-13T18:12:14;23.83;;;13.13;;
7336;SDS011;54510;42.016;23.098;2023-02-13T18:14:42;25.45;;;14.90;;